createdAt,value
2023-03-05T00:01:09.589Z,-1.31
2023-03-05T00:03:41.043Z,-1.36
2023-03-05T00:06:11.428Z,-1.39
2023-03-05T00:08:41.606Z,-1.40
2023-03-05T00:11:12.630Z,-1.40
2023-03-05T00:13:42.194Z,-1.43
2023-03-05T00:16:13.344Z,-1.46
2023-03-05T00:18:44.978Z,-1.49
2023-03-05T00:21:27.390Z,-1.52
2023-03-05T00:23:58.180Z,-1.54
2023-03-05T00:26:28.899Z,-1.59
2023-03-05T00:29:02.278Z,-1.62
2023-03-05T00:31:35.336Z,-1.65
2023-03-05T00:34:07.798Z,-1.69
2023-03-05T00:36:42.060Z,-1.74
2023-03-05T00:39:13.952Z,-1.80
2023-03-05T00:41:44.140Z,-1.87
2023-03-05T00:44:14.889Z,-1.92
2023-03-05T00:46:47.413Z,-1.96
2023-03-05T00:49:17.857Z,-1.99
2023-03-05T00:51:47.252Z,-2.00
2023-03-05T00:54:16.859Z,-2.01
2023-03-05T00:56:47.129Z,-2.03
2023-03-05T00:59:16.285Z,-2.07
2023-03-05T01:01:45.719Z,-2.07
2023-03-05T01:04:15.011Z,-2.08
2023-03-05T01:06:46.602Z,-2.04
2023-03-05T01:09:17.327Z,-2.00
2023-03-05T01:11:47.690Z,-1.98
2023-03-05T01:14:16.889Z,-1.98
2023-03-05T01:16:47.035Z,-2.01
2023-03-05T01:19:17.948Z,-2.05
2023-03-05T01:21:47.541Z,-2.08
2023-03-05T01:24:17.871Z,-2.12
2023-03-05T01:26:48.292Z,-2.12
2023-03-05T01:29:18.507Z,-2.14
2023-03-05T01:31:49.497Z,-2.15
2023-03-05T01:34:20.340Z,-2.16
2023-03-05T01:36:53.112Z,-2.16
2023-03-05T01:39:24.131Z,-2.18
2023-03-05T01:41:54.338Z,-2.19
2023-03-05T01:44:25.995Z,-2.20
2023-03-05T01:46:56.433Z,-2.22
2023-03-05T01:49:30.926Z,-2.21
2023-03-05T01:52:14.670Z,-2.22
2023-03-05T01:54:49.163Z,-2.23
2023-03-05T01:57:24.446Z,-2.26
2023-03-05T02:00:01.421Z,-2.28
2023-03-05T02:02:31.436Z,-2.31
2023-03-05T02:05:16.887Z,-2.31
2023-03-05T02:07:47.691Z,-2.29
2023-03-05T02:10:30.034Z,-2.26
2023-03-05T02:13:03.246Z,-2.23
2023-03-05T02:15:34.218Z,-2.21
2023-03-05T02:18:05.295Z,-2.21
2023-03-05T02:21:01.119Z,-2.21
2023-03-05T02:23:38.073Z,-2.25
2023-03-05T02:26:11.052Z,-2.27
2023-03-05T02:29:01.717Z,-2.31
2023-03-05T02:31:32.528Z,-2.36
2023-03-05T02:34:05.167Z,-2.42
2023-03-05T02:36:35.510Z,-2.46
2023-03-05T02:39:05.883Z,-2.49
2023-03-05T02:41:36.533Z,-2.53
2023-03-05T02:44:09.310Z,-2.52
2023-03-05T02:46:43.654Z,-2.53
2023-03-05T02:49:15.168Z,-2.52
2023-03-05T02:51:45.355Z,-2.52
2023-03-05T02:54:16.838Z,-2.60
2023-03-05T02:56:48.202Z,-2.71
2023-03-05T02:59:18.704Z,-2.79
2023-03-05T03:01:49.583Z,-2.88
2023-03-05T03:04:20.585Z,-2.96
2023-03-05T03:06:54.049Z,-3.01
2023-03-05T03:09:25.110Z,-3.07
2023-03-05T03:11:57.052Z,-3.11
2023-03-05T03:14:28.820Z,-3.10
2023-03-05T03:17:01.155Z,-3.09
2023-03-05T03:19:32.136Z,-3.08
2023-03-05T03:22:03.039Z,-3.08
2023-03-05T03:24:36.046Z,-3.10
2023-03-05T03:27:07.613Z,-3.12
2023-03-05T03:29:40.004Z,-3.13
2023-03-05T03:32:10.164Z,-3.12
2023-03-05T03:34:40.243Z,-3.07
2023-03-05T03:37:10.721Z,-3.07
2023-03-05T03:39:41.110Z,-3.12
2023-03-05T03:42:11.430Z,-3.15
2023-03-05T03:44:42.602Z,-3.19
2023-03-05T03:47:13.815Z,-3.20
2023-03-05T03:49:43.571Z,-3.22
2023-03-05T03:52:13.366Z,-3.25
2023-03-05T03:54:44.512Z,-3.27
2023-03-05T03:57:15.253Z,-3.29
2023-03-05T03:59:46.547Z,-3.33
2023-03-05T04:02:16.205Z,-3.37
2023-03-05T04:04:46.171Z,-3.40
2023-03-05T04:07:15.630Z,-3.44
2023-03-05T04:09:45.793Z,-3.45
2023-03-05T04:12:18.917Z,-3.45
2023-03-05T04:14:49.193Z,-3.44
2023-03-05T04:17:19.157Z,-3.45
2023-03-05T04:19:49.302Z,-3.48
2023-03-05T04:22:20.089Z,-3.50
2023-03-05T04:24:53.808Z,-3.55
2023-03-05T04:27:25.616Z,-3.62
2023-03-05T04:29:56.855Z,-3.67
2023-03-05T04:32:30.554Z,-3.71
2023-03-05T04:35:01.362Z,-3.73
2023-03-05T04:37:32.345Z,-3.77
2023-03-05T04:40:02.637Z,-3.81
2023-03-05T04:42:33.153Z,-3.85
2023-03-05T04:45:03.046Z,-3.89
2023-03-05T04:47:32.935Z,-3.91
2023-03-05T04:50:03.982Z,-3.90
2023-03-05T04:52:34.532Z,-3.90
2023-03-05T04:55:04.113Z,-3.91
2023-03-05T04:57:33.711Z,-3.95
2023-03-05T05:00:07.770Z,-3.96
2023-03-05T05:02:37.952Z,-3.96
2023-03-05T05:05:08.208Z,-3.96
2023-03-05T05:07:38.243Z,-3.95
2023-03-05T05:10:09.953Z,-3.95
2023-03-05T05:12:40.773Z,-3.95
2023-03-05T05:15:12.068Z,-3.94
2023-03-05T05:17:41.846Z,-3.89
2023-03-05T05:20:13.797Z,-3.85
2023-03-05T05:22:43.196Z,-3.81
2023-03-05T05:25:12.252Z,-3.75
2023-03-05T05:27:41.312Z,-3.69
2023-03-05T05:30:11.307Z,-3.63
2023-03-05T05:32:40.185Z,-3.57
2023-03-05T05:35:10.681Z,-3.51
2023-03-05T05:37:39.956Z,-3.46
2023-03-05T05:40:10.250Z,-3.40
2023-03-05T05:42:39.855Z,-3.29
2023-03-05T05:45:10.063Z,-3.16
2023-03-05T05:47:38.873Z,-3.01
2023-03-05T05:50:08.235Z,-2.88
2023-03-05T05:52:37.364Z,-2.79
2023-03-05T05:55:07.099Z,-2.73
2023-03-05T05:57:35.856Z,-2.55
2023-03-05T06:00:07.552Z,-2.36
2023-03-05T06:02:41.251Z,-2.25
2023-03-05T06:05:14.201Z,-2.12
2023-03-05T06:07:43.521Z,-2.01
2023-03-05T06:10:13.069Z,-1.86
2023-03-05T06:12:41.794Z,-1.69
2023-03-05T06:15:11.009Z,-1.52
2023-03-05T06:17:39.788Z,-1.39
2023-03-05T06:20:09.596Z,-1.24
2023-03-05T06:22:39.116Z,-1.08
2023-03-05T06:25:09.621Z,-0.87
2023-03-05T06:27:39.124Z,-0.67
2023-03-05T06:30:08.731Z,-0.46
2023-03-05T06:32:37.919Z,-0.26
2023-03-05T06:35:07.028Z,-0.10
2023-03-05T06:37:35.816Z,0.08
2023-03-05T06:40:05.840Z,0.19
2023-03-05T06:42:35.641Z,0.18
2023-03-05T06:45:04.945Z,0.26
2023-03-05T06:47:34.058Z,0.37
2023-03-05T06:50:02.736Z,0.52
2023-03-05T06:52:31.307Z,0.61
2023-03-05T06:55:00.220Z,0.63
2023-03-05T06:57:28.984Z,0.66
2023-03-05T06:59:57.638Z,0.74
2023-03-05T07:02:26.409Z,0.85
2023-03-05T07:04:55.038Z,1.08
2023-03-05T07:07:23.873Z,1.11
2023-03-05T07:09:54.048Z,1.16
2023-03-05T07:12:23.146Z,1.08
2023-03-05T07:14:52.455Z,1.03
2023-03-05T07:17:21.133Z,1.27
2023-03-05T07:19:49.934Z,1.64
2023-03-05T07:22:18.925Z,1.91
2023-03-05T07:24:47.605Z,2.05
2023-03-05T07:27:16.278Z,2.17
2023-03-05T07:29:45.071Z,2.24
2023-03-05T07:32:14.182Z,2.16
2023-03-05T07:34:42.749Z,2.17
2023-03-05T07:37:11.943Z,2.17
2023-03-05T07:39:40.656Z,2.05
2023-03-05T07:42:09.608Z,2.35
2023-03-05T07:44:49.983Z,2.50
2023-03-05T07:47:19.402Z,2.62
2023-03-05T07:49:47.971Z,2.66
2023-03-05T07:52:16.770Z,2.68
2023-03-05T07:54:45.441Z,2.74
2023-03-05T07:57:15.733Z,2.89
2023-03-05T07:59:44.250Z,2.78
2023-03-05T08:02:14.744Z,3.02
2023-03-05T08:04:43.702Z,2.97
2023-03-05T08:07:15.700Z,3.10
2023-03-05T08:09:44.656Z,3.29
2023-03-05T08:12:13.306Z,3.38
2023-03-05T08:14:43.418Z,3.47
2023-03-05T08:17:12.110Z,3.58
2023-03-05T08:19:40.695Z,3.86
2023-03-05T08:22:09.488Z,3.91
2023-03-05T08:24:38.176Z,4.09
2023-03-05T08:27:06.851Z,4.01
2023-03-05T08:29:35.744Z,3.95
2023-03-05T08:32:05.087Z,4.25
2023-03-05T08:34:35.162Z,4.45
2023-03-05T08:37:03.748Z,4.71
2023-03-05T08:39:32.642Z,4.91
2023-03-05T08:42:02.903Z,5.08
2023-03-05T08:44:31.644Z,5.23
2023-03-05T08:47:00.370Z,5.38
2023-03-05T08:49:29.115Z,5.54
2023-03-05T08:51:57.629Z,5.47
2023-03-05T08:54:26.516Z,5.48
2023-03-05T08:56:55.171Z,5.63
2023-03-05T08:59:23.975Z,5.71
2023-03-05T09:01:52.888Z,5.76
2023-03-05T09:04:21.550Z,5.79
2023-03-05T09:06:50.325Z,5.89
2023-03-05T09:09:22.296Z,6.01
2023-03-05T09:11:52.406Z,6.08
2023-03-05T09:14:21.309Z,5.70
2023-03-05T09:16:49.882Z,5.43
2023-03-05T09:19:18.668Z,5.49
2023-03-05T09:21:47.602Z,5.53
2023-03-05T09:24:16.661Z,5.51
2023-03-05T09:26:45.343Z,5.33
2023-03-05T09:29:13.922Z,5.17
2023-03-05T09:31:44.338Z,5.11
2023-03-05T09:34:13.236Z,5.17
2023-03-05T09:36:41.926Z,4.98
2023-03-05T09:39:11.121Z,5.02
2023-03-05T09:42:06.020Z,5.07
2023-03-05T09:44:52.828Z,5.11
2023-03-05T09:47:47.525Z,5.26
2023-03-05T09:50:32.086Z,5.15
2023-03-05T09:53:45.152Z,5.18
2023-03-05T09:56:21.578Z,5.32
2023-03-05T09:58:56.279Z,5.75
2023-03-05T10:01:32.309Z,6.01
2023-03-05T10:04:11.792Z,6.26
2023-03-05T10:07:08.932Z,6.81
2023-03-05T10:09:52.395Z,7.24
2023-03-05T10:12:33.576Z,8.17
2023-03-05T10:15:03.542Z,8.95
2023-03-05T10:17:41.175Z,9.84
2023-03-05T10:21:06.998Z,10.85
2023-03-05T10:23:54.118Z,10.88
2023-03-05T10:26:23.315Z,11.58
2023-03-05T10:29:19.244Z,12.29
2023-03-05T10:32:00.289Z,13.21
2023-03-05T10:35:13.955Z,14.03
2023-03-05T10:38:07.010Z,14.68
2023-03-05T10:40:46.037Z,14.76
2023-03-05T10:43:21.383Z,14.56
2023-03-05T10:45:53.260Z,15.46
2023-03-05T10:48:28.387Z,15.50
2023-03-05T10:51:03.208Z,14.55
2023-03-05T10:53:58.016Z,13.82
2023-03-05T10:56:29.532Z,13.15
2023-03-05T10:58:58.151Z,13.37
2023-03-05T11:01:29.190Z,14.13
2023-03-05T11:04:04.002Z,14.74
2023-03-05T11:06:43.551Z,15.67
2023-03-05T11:09:29.465Z,15.92
2023-03-05T11:12:17.165Z,16.25
2023-03-05T11:14:47.180Z,16.53
2023-03-05T11:17:28.201Z,16.80
2023-03-05T11:19:59.039Z,16.76
2023-03-05T11:22:27.586Z,17.89
2023-03-05T11:25:05.708Z,17.13
2023-03-05T11:27:40.611Z,17.00
2023-03-05T11:30:25.688Z,16.87
2023-03-05T11:33:22.942Z,15.52
2023-03-05T11:36:09.648Z,14.92
2023-03-05T11:38:55.135Z,14.16
2023-03-05T11:41:30.227Z,13.41
2023-03-05T11:44:04.071Z,12.78
2023-03-05T11:46:41.382Z,12.35
2023-03-05T11:49:15.790Z,11.60
2023-03-05T11:51:51.324Z,11.55
2023-03-05T11:54:32.023Z,10.86
2023-03-05T11:57:02.934Z,10.68
2023-03-05T11:59:39.981Z,10.77
2023-03-05T12:02:23.534Z,10.62
2023-03-05T12:04:53.261Z,10.59
2023-03-05T12:07:34.643Z,10.18
2023-03-05T12:10:04.784Z,9.97
2023-03-05T12:12:57.308Z,9.70
2023-03-05T12:15:39.616Z,9.39
2023-03-05T12:18:31.541Z,9.24
2023-03-05T12:21:29.101Z,9.26
2023-03-05T12:24:01.743Z,9.34
2023-03-05T12:27:04.542Z,9.28
2023-03-05T12:29:33.403Z,10.33
2023-03-05T12:32:03.217Z,11.51
2023-03-05T12:34:41.909Z,12.48
2023-03-05T12:37:22.560Z,12.73
2023-03-05T12:39:57.722Z,12.29
2023-03-05T12:42:29.168Z,12.08
2023-03-05T12:45:09.919Z,11.32
2023-03-05T12:47:49.676Z,10.94
2023-03-05T12:50:27.145Z,10.75
2023-03-05T12:52:56.859Z,10.17
2023-03-05T12:55:40.305Z,9.86
2023-03-05T12:58:21.162Z,9.69
2023-03-05T13:01:11.027Z,9.40
2023-03-05T13:03:43.660Z,9.13
2023-03-05T13:06:41.696Z,9.14
2023-03-05T13:09:18.314Z,10.12
2023-03-05T13:11:52.669Z,10.98
2023-03-05T13:14:35.390Z,11.70
2023-03-05T13:17:26.581Z,12.50
2023-03-05T13:19:56.315Z,12.94
2023-03-05T13:22:24.999Z,13.02
2023-03-05T13:25:13.873Z,13.18
2023-03-05T13:27:43.581Z,13.00
2023-03-05T13:30:26.585Z,12.62
2023-03-05T13:33:03.871Z,12.51
2023-03-05T13:35:33.752Z,11.96
2023-03-05T13:38:02.502Z,11.46
2023-03-05T13:40:33.023Z,11.59
2023-03-05T13:43:20.884Z,12.16
2023-03-05T13:45:56.766Z,11.93
2023-03-05T13:48:28.086Z,11.44
2023-03-05T13:50:59.092Z,11.03
2023-03-05T13:53:30.432Z,10.23
2023-03-05T13:56:05.936Z,10.20
2023-03-05T13:58:49.633Z,9.77
2023-03-05T14:01:21.211Z,9.78
2023-03-05T14:03:51.893Z,9.62
2023-03-05T14:06:23.586Z,9.62
2023-03-05T14:08:54.574Z,9.66
2023-03-05T14:11:23.487Z,9.69
2023-03-05T14:14:05.786Z,9.53
2023-03-05T14:16:34.810Z,9.25
2023-03-05T14:19:07.439Z,9.26
2023-03-05T14:21:50.748Z,9.23
2023-03-05T14:24:25.736Z,9.30
2023-03-05T14:27:09.049Z,9.35
2023-03-05T14:29:38.147Z,8.93
2023-03-05T14:32:16.933Z,8.51
2023-03-05T14:34:55.483Z,8.07
2023-03-05T14:37:30.012Z,7.82
2023-03-05T14:40:06.576Z,7.56
2023-03-05T14:42:59.124Z,7.49
2023-03-05T14:45:37.583Z,7.30
2023-03-05T14:48:08.503Z,7.09
2023-03-05T14:50:56.326Z,6.85
2023-03-05T14:53:36.989Z,6.81
2023-03-05T14:56:07.387Z,6.76
2023-03-05T14:58:36.140Z,6.65
2023-03-05T15:01:05.367Z,6.63
2023-03-05T15:03:33.972Z,6.59
2023-03-05T15:06:02.575Z,6.50
2023-03-05T15:08:32.630Z,6.42
2023-03-05T15:11:01.365Z,6.39
2023-03-05T15:13:30.252Z,6.37
2023-03-05T15:15:59.675Z,6.27
2023-03-05T15:18:28.543Z,6.24
2023-03-05T15:20:57.843Z,6.20
2023-03-05T15:23:26.728Z,6.15
2023-03-05T15:25:55.323Z,6.09
2023-03-05T15:28:24.100Z,6.05
2023-03-05T15:30:52.689Z,6.00
2023-03-05T15:33:23.314Z,5.97
2023-03-05T15:35:51.952Z,5.94
2023-03-05T15:38:20.894Z,5.92
2023-03-05T15:40:50.394Z,5.87
2023-03-05T15:43:19.492Z,5.84
2023-03-05T15:45:48.688Z,5.80
2023-03-05T15:48:17.483Z,5.75
2023-03-05T15:50:47.081Z,5.69
2023-03-05T15:53:16.701Z,5.63
2023-03-05T15:55:46.508Z,5.60
2023-03-05T15:58:18.469Z,5.56
2023-03-05T16:00:47.863Z,5.49
2023-03-05T16:03:16.475Z,5.45
2023-03-05T16:05:45.241Z,5.41
2023-03-05T16:08:14.028Z,5.38
2023-03-05T16:10:43.030Z,5.33
2023-03-05T16:13:16.280Z,5.30
2023-03-05T16:15:45.364Z,5.26
2023-03-05T16:18:17.090Z,5.23
2023-03-05T16:20:46.181Z,5.18
2023-03-05T16:23:14.850Z,5.15
2023-03-05T16:25:43.538Z,5.11
2023-03-05T16:28:12.322Z,5.06
2023-03-05T16:30:41.534Z,5.03
2023-03-05T16:33:10.422Z,5.00
2023-03-05T16:35:38.990Z,4.96
2023-03-05T16:38:08.813Z,4.92
2023-03-05T16:41:06.287Z,4.88
2023-03-05T16:43:29.628Z,4.85
2023-03-05T16:45:58.415Z,4.83
2023-03-05T16:48:30.474Z,4.80
2023-03-05T16:51:00.328Z,4.78
2023-03-05T16:53:28.876Z,4.72
2023-03-05T16:55:57.558Z,4.70
2023-03-05T16:58:27.073Z,4.53
2023-03-05T17:00:55.792Z,4.42
2023-03-05T17:03:28.635Z,4.25
2023-03-05T17:05:57.234Z,4.08
2023-03-05T17:08:30.671Z,4.07
2023-03-05T17:10:59.190Z,4.02
2023-03-05T17:13:27.776Z,3.96
2023-03-05T17:15:57.761Z,3.87
2023-03-05T17:18:26.783Z,3.80
2023-03-05T17:20:55.372Z,3.72
2023-03-05T17:23:24.875Z,3.73
2023-03-05T17:25:53.457Z,3.78
2023-03-05T17:28:22.146Z,3.80
2023-03-05T17:30:51.543Z,3.81
2023-03-05T17:33:21.278Z,3.81
2023-03-05T17:35:50.252Z,3.82
2023-03-05T17:38:19.032Z,3.83
2023-03-05T17:40:48.232Z,3.81
2023-03-05T17:43:17.022Z,3.73
2023-03-05T17:45:47.495Z,3.71
2023-03-05T17:48:16.447Z,3.66
2023-03-05T17:50:45.539Z,3.57
2023-03-05T17:53:14.320Z,3.52
2023-03-05T17:55:43.216Z,3.51
2023-03-05T17:58:12.210Z,3.45
2023-03-05T18:00:40.991Z,3.44
2023-03-05T18:03:09.678Z,3.39
2023-03-05T18:05:38.774Z,3.34
2023-03-05T18:08:07.799Z,3.32
2023-03-05T18:10:36.659Z,3.34
2023-03-05T18:13:05.722Z,3.34
2023-03-05T18:15:34.335Z,3.35
2023-03-05T18:18:03.329Z,3.34
2023-03-05T18:20:37.285Z,3.34
2023-03-05T18:23:06.211Z,3.34
2023-03-05T18:25:35.230Z,3.33
2023-03-05T18:28:12.407Z,3.33
2023-03-05T18:30:42.447Z,3.32
2023-03-05T18:33:22.063Z,3.31
2023-03-05T18:35:55.186Z,3.30
2023-03-05T18:38:26.648Z,3.29
2023-03-05T18:40:56.721Z,3.28
2023-03-05T18:43:25.507Z,3.26
2023-03-05T18:45:56.305Z,3.25
2023-03-05T18:48:25.134Z,3.23
2023-03-05T18:50:54.740Z,3.21
2023-03-05T18:53:23.838Z,3.20
2023-03-05T18:55:53.655Z,3.18
2023-03-05T18:58:23.009Z,3.17
2023-03-05T19:00:52.348Z,3.16
2023-03-05T19:03:22.877Z,3.16
2023-03-05T19:05:52.385Z,3.13
2023-03-05T19:08:21.169Z,3.11
2023-03-05T19:10:52.415Z,3.11
2023-03-05T19:13:40.112Z,3.09
2023-03-05T19:16:13.702Z,3.05
2023-03-05T19:19:18.380Z,3.03
2023-03-05T19:21:49.850Z,3.02
2023-03-05T19:24:18.518Z,3.00
2023-03-05T19:26:48.328Z,2.98
2023-03-05T19:29:16.810Z,2.97
2023-03-05T19:31:45.393Z,2.96
2023-03-05T19:34:16.134Z,2.95
2023-03-05T19:36:45.017Z,2.92
2023-03-05T19:39:14.110Z,2.84
2023-03-05T19:41:42.996Z,2.84
2023-03-05T19:44:13.118Z,2.82
2023-03-05T19:46:44.587Z,2.78
2023-03-05T19:49:17.381Z,2.78
2023-03-05T19:51:46.757Z,2.78
2023-03-05T19:54:17.586Z,2.79
2023-03-05T19:56:47.561Z,2.80
2023-03-05T19:59:21.231Z,2.79
2023-03-05T20:01:49.828Z,2.80
2023-03-05T20:04:22.063Z,2.79
2023-03-05T20:06:50.940Z,2.79
2023-03-05T20:09:19.838Z,2.79
2023-03-05T20:11:50.176Z,2.80
2023-03-05T20:14:19.254Z,2.79
2023-03-05T20:16:47.850Z,2.79
2023-03-05T20:19:18.704Z,2.79
2023-03-05T20:21:47.265Z,2.79
2023-03-05T20:24:18.073Z,2.78
2023-03-05T20:26:48.020Z,2.76
2023-03-05T20:29:18.742Z,2.72
2023-03-05T20:31:50.142Z,2.69
2023-03-05T20:34:20.003Z,2.68
2023-03-05T20:36:49.524Z,2.61
2023-03-05T20:39:18.197Z,2.61
2023-03-05T20:41:47.219Z,2.60
2023-03-05T20:44:16.808Z,2.61
2023-03-05T20:47:24.815Z,2.62
2023-03-05T20:50:05.994Z,2.63
2023-03-05T20:52:34.886Z,2.63
2023-03-05T20:55:05.273Z,2.62
2023-03-05T20:57:34.092Z,2.60
2023-03-05T21:00:04.320Z,2.59
2023-03-05T21:02:33.203Z,2.58
2023-03-05T21:05:02.407Z,2.57
2023-03-05T21:07:31.700Z,2.55
2023-03-05T21:10:00.498Z,2.53
2023-03-05T21:12:29.379Z,2.52
2023-03-05T21:14:58.679Z,2.53
2023-03-05T21:17:27.468Z,2.51
2023-03-05T21:19:56.255Z,2.50
2023-03-05T21:22:24.739Z,2.49
2023-03-05T21:25:21.274Z,2.47
2023-03-05T21:27:58.462Z,2.43
2023-03-05T21:30:35.549Z,2.42
2023-03-05T21:33:09.244Z,2.40
2023-03-05T21:35:38.551Z,2.37
2023-03-05T21:38:08.668Z,2.35
2023-03-05T21:40:44.415Z,2.29
2023-03-05T21:43:14.126Z,2.29
2023-03-05T21:45:43.304Z,2.29
2023-03-05T21:48:12.216Z,2.29
2023-03-05T21:50:43.340Z,2.28
2023-03-05T21:53:13.161Z,2.27
2023-03-05T21:56:03.361Z,2.28
2023-03-05T21:58:37.382Z,2.28
2023-03-05T22:01:06.485Z,2.28
2023-03-05T22:03:35.371Z,2.26
2023-03-05T22:06:04.800Z,2.27
2023-03-05T22:08:34.911Z,2.26
2023-03-05T22:11:10.059Z,2.24
2023-03-05T22:13:39.746Z,2.23
2023-03-05T22:16:09.662Z,2.21
2023-03-05T22:18:38.318Z,2.18
2023-03-05T22:21:18.519Z,2.16
2023-03-05T22:23:48.087Z,2.14
2023-03-05T22:26:16.874Z,2.15
2023-03-05T22:28:46.976Z,2.13
2023-03-05T22:31:27.134Z,2.12
2023-03-05T22:33:55.869Z,2.11
2023-03-05T22:36:25.324Z,2.09
2023-03-05T22:38:54.012Z,2.07
2023-03-05T22:41:23.210Z,2.03
2023-03-05T22:43:52.013Z,2.00
2023-03-05T22:46:23.630Z,1.98
2023-03-05T22:48:53.409Z,1.95
2023-03-05T22:51:22.671Z,1.90
2023-03-05T22:53:52.108Z,1.86
2023-03-05T22:56:22.189Z,1.83
2023-03-05T22:58:51.593Z,1.77
2023-03-05T23:01:27.515Z,1.73
2023-03-05T23:04:48.566Z,1.70
2023-03-05T23:07:20.803Z,1.67
2023-03-05T23:09:58.438Z,1.66
2023-03-05T23:12:30.725Z,1.65
2023-03-05T23:15:01.326Z,1.63
2023-03-05T23:17:30.896Z,1.60
2023-03-05T23:20:00.587Z,1.60
2023-03-05T23:22:29.845Z,1.61
2023-03-05T23:24:58.937Z,1.60
2023-03-05T23:27:28.035Z,1.61
2023-03-05T23:30:19.848Z,1.61
2023-03-05T23:32:54.593Z,1.62
2023-03-05T23:35:26.668Z,1.62
2023-03-05T23:37:57.535Z,1.64
2023-03-05T23:40:39.797Z,1.63
2023-03-05T23:43:10.280Z,1.63
2023-03-05T23:45:42.459Z,1.64
2023-03-05T23:48:12.709Z,1.63
2023-03-05T23:50:45.435Z,1.60
2023-03-05T23:53:21.252Z,1.57
2023-03-05T23:55:51.340Z,1.54
2023-03-05T23:58:20.986Z,1.51
